Navigator Of The Seas — C6FU4 — position and weather

sailwx.info

Track history (hours):
 
Tides and Currents Weather Stations Pressure Air Temp Water Temp Dewpoint Dewpoint Depression Visibility Wind Speed Wind Dir Waves Ship Positions

Navigator Of The Seas

Operator: Royal Caribbean Cruises Ltd

Last reported at 2019-Dec-14 02:46 UTC. Time now 2019-Dec-15 10:46 UTC.
Position N 26°09' W 079°10'.

Type: Passenger vessel. MMSI: 311478000.

Date/timePositionNaut miles runAvg speedWind from/ knotsBaromVisibWave heightAir tempDewpointWater temp
2019-Dec-14 02:46N 26°09' W 079°10'1915.0
2019-Dec-14 01:30N 26°01' W 079°29'3014.9
2019-Dec-13 23:31N 25°49' W 079°60'6 5.9
2019-Dec-13 22:31N 25°46' W 080°05'4 1.8
2019-Dec-13 20:26N 25°46' W 080°09'0 0.0
2019-Dec-13 18:26N 25°46' W 080°09'0 0.0
2019-Dec-13 16:56N 25°46' W 080°09'0 0.0
2019-Dec-13 15:56N 25°46' W 080°09'0 0.0
2019-Dec-13 12:59N 25°46' W 080°09'10 2.3
2019-Dec-13 08:30N 25°47' W 079°58'1510.3
2019-Dec-13 07:00N 25°52' W 079°42'5 9.4
2019-Dec-13 06:30N 25°55' W 079°38'5 9.8
2019-Dec-13 06:00N 25°59' W 079°34'1510.0
2019-Dec-13 04:30N 26°10' W 079°23'65 3.3
2019-Dec-12 09:00N 26°24' W 078°12'52 2.2 120 / 141020.3 21.420.3
2019-Dec-11 09:00N 25°48' W 077°30'17 0.7 120 / 151020.3 21.420.5
2019-Dec-10 08:00N 25°54' W 077°48'7914.9 130 / 161020.3 21.320.2
2019-Dec-10 02:42N 26°15' W 079°13'1013.9
2019-Dec-10 02:00N 26°10' W 079°22'5012.4
2019-Dec-09 22:01N 25°47' W 080°11'1 1.3
2019-Dec-09 20:54N 25°46' W 080°10'0 0.0
2019-Dec-09 20:24N 25°46' W 080°10'0 0.0
2019-Dec-09 19:57N 25°46' W 080°10'0 0.0
2019-Dec-09 18:00N 25°46' W 080°10'19 2.2
2019-Dec-09 09:00N 25°48' W 079°48'2110.6 140 / 111019.3 20.920.0
2019-Dec-09 07:00N 26°05' W 079°34'2710.1
2019-Dec-09 04:19N 26°17' W 079°07'87 4.5
2019-Dec-08 09:00N 25°48' W 077°36'12 0.5 040 / 161020.3 20.719.6
2019-Dec-07 09:00N 25°42' W 077°24'11214.1 360 / 51020.3 20.719.6
2019-Dec-07 01:00N 26°08' W 079°26'1514.6
2019-Dec-07 00:00N 26°00' W 079°39'714.5
2019-Dec-06 23:30N 25°57' W 079°46'2311.6
2019-Dec-06 21:31N 25°46' W 080°09'0 0.0
2019-Dec-06 20:59N 25°46' W 080°09'0 0.0
2019-Dec-06 19:59N 25°46' W 080°09'0 0.0
2019-Dec-06 19:29N 25°46' W 080°09'0 0.0
2019-Dec-06 17:59N 25°46' W 080°09'0 0.0
2019-Dec-06 16:59N 25°46' W 080°09'0 0.0
2019-Dec-06 15:59N 25°46' W 080°09'0 0.0
2019-Dec-06 14:29N 25°46' W 080°09'0 0.0
2019-Dec-06 13:59N 25°46' W 080°09'0 0.0
2019-Dec-06 12:59N 25°46' W 080°09'0 0.0
2019-Dec-06 12:29N 25°46' W 080°09'0 0.0
2019-Dec-06 11:59N 25°46' W 080°09'0 0.0
2019-Dec-06 10:59N 25°46' W 080°09'18 4.6
2019-Dec-06 07:00N 25°54' W 079°51'4 7.6
2019-Dec-06 06:30N 25°56' W 079°47'14 7.1
2019-Dec-06 04:31N 26°03' W 079°34'17 6.8
2019-Dec-06 02:00N 26°13' W 079°18'60 3.5
2019-Dec-05 09:00N 26°18' W 078°12'44 1.8 320 / 161016.3 19.118.5
2019-Dec-04 09:00N 25°48' W 077°36'   280 / 201014.3 18.617.5
Track history (hours):
 
Tides and Currents Weather Stations Pressure Air Temp Water Temp Dewpoint Dewpoint Depression Visibility Wind Speed Wind Dir Waves Ship Positions

Navigator Of The Seas

Operator: Royal Caribbean Cruises Ltd

Last reported at 2019-Dec-14 02:46 UTC. Time now 2019-Dec-15 10:46 UTC.
Position N 26°09' W 079°10'.

Type: Passenger vessel. MMSI: 311478000.

Date/timePositionNaut miles runAvg speedWind from/ knotsBaromVisibWave heightAir tempDewpointWater temp
2019-Dec-14 02:46N 26°09' W 079°10'1915.0
2019-Dec-14 01:30N 26°01' W 079°29'3014.9
2019-Dec-13 23:31N 25°49' W 079°60'6 5.9
2019-Dec-13 22:31N 25°46' W 080°05'4 1.8
2019-Dec-13 20:26N 25°46' W 080°09'0 0.0
2019-Dec-13 18:26N 25°46' W 080°09'0 0.0
2019-Dec-13 16:56N 25°46' W 080°09'0 0.0
2019-Dec-13 15:56N 25°46' W 080°09'0 0.0
2019-Dec-13 12:59N 25°46' W 080°09'10 2.3
2019-Dec-13 08:30N 25°47' W 079°58'1510.3
2019-Dec-13 07:00N 25°52' W 079°42'5 9.4
2019-Dec-13 06:30N 25°55' W 079°38'5 9.8
2019-Dec-13 06:00N 25°59' W 079°34'1510.0
2019-Dec-13 04:30N 26°10' W 079°23'65 3.3
2019-Dec-12 09:00N 26°24' W 078°12'52 2.2 120 / 141020.3 21.420.3
2019-Dec-11 09:00N 25°48' W 077°30'17 0.7 120 / 151020.3 21.420.5
2019-Dec-10 08:00N 25°54' W 077°48'7914.9 130 / 161020.3 21.320.2
2019-Dec-10 02:42N 26°15' W 079°13'1013.9
2019-Dec-10 02:00N 26°10' W 079°22'5012.4
2019-Dec-09 22:01N 25°47' W 080°11'1 1.3
2019-Dec-09 20:54N 25°46' W 080°10'0 0.0
2019-Dec-09 20:24N 25°46' W 080°10'0 0.0
2019-Dec-09 19:57N 25°46' W 080°10'0 0.0
2019-Dec-09 18:00N 25°46' W 080°10'19 2.2
2019-Dec-09 09:00N 25°48' W 079°48'2110.6 140 / 111019.3 20.920.0
2019-Dec-09 07:00N 26°05' W 079°34'2710.1
2019-Dec-09 04:19N 26°17' W 079°07'87 4.5
2019-Dec-08 09:00N 25°48' W 077°36'12 0.5 040 / 161020.3 20.719.6
2019-Dec-07 09:00N 25°42' W 077°24'11214.1 360 / 51020.3 20.719.6
2019-Dec-07 01:00N 26°08' W 079°26'1514.6
2019-Dec-07 00:00N 26°00' W 079°39'714.5
2019-Dec-06 23:30N 25°57' W 079°46'2311.6
2019-Dec-06 21:31N 25°46' W 080°09'0 0.0
2019-Dec-06 20:59N 25°46' W 080°09'0 0.0
2019-Dec-06 19:59N 25°46' W 080°09'0 0.0
2019-Dec-06 19:29N 25°46' W 080°09'0 0.0
2019-Dec-06 17:59N 25°46' W 080°09'0 0.0
2019-Dec-06 16:59N 25°46' W 080°09'0 0.0
2019-Dec-06 15:59N 25°46' W 080°09'0 0.0
2019-Dec-06 14:29N 25°46' W 080°09'0 0.0
2019-Dec-06 13:59N 25°46' W 080°09'0 0.0
2019-Dec-06 12:59N 25°46' W 080°09'0 0.0
2019-Dec-06 12:29N 25°46' W 080°09'0 0.0
2019-Dec-06 11:59N 25°46' W 080°09'0 0.0
2019-Dec-06 10:59N 25°46' W 080°09'18 4.6
2019-Dec-06 07:00N 25°54' W 079°51'4 7.6
2019-Dec-06 06:30N 25°56' W 079°47'14 7.1
2019-Dec-06 04:31N 26°03' W 079°34'17 6.8
2019-Dec-06 02:00N 26°13' W 079°18'60 3.5
2019-Dec-05 09:00N 26°18' W 078°12'44 1.8 320 / 161016.3 19.118.5
2019-Dec-04 09:00N 25°48' W 077°36'   280 / 201014.3 18.617.5

Dump ship's entire track history